createdAt,value
2019-05-06T00:03:06.190Z,48.46
2019-05-06T00:08:08.263Z,48.66
2019-05-06T00:13:10.313Z,48.87
2019-05-06T00:18:13.894Z,48.95
2019-05-06T00:23:21.768Z,49.25
2019-05-06T00:28:29.375Z,49.41
2019-05-06T00:33:31.409Z,49.48
2019-05-06T00:38:34.168Z,49.66
2019-05-06T00:43:36.356Z,50.13
2019-05-06T00:48:38.547Z,50.17
2019-05-06T00:53:44.185Z,50.41
2019-05-06T00:58:46.288Z,50.96
2019-05-06T01:03:48.383Z,50.88
2019-05-06T01:08:50.443Z,51.09
2019-05-06T01:14:04.204Z,51.00
2019-05-06T01:19:06.267Z,50.63
2019-05-06T01:24:08.297Z,50.76
2019-05-06T01:29:10.375Z,50.95
2019-05-06T01:34:13.771Z,50.84
2019-05-06T01:39:34.147Z,50.72
2019-05-06T01:44:36.314Z,50.63
2019-05-06T01:49:38.393Z,50.64
2019-05-06T01:54:40.448Z,50.31
2019-05-06T01:59:44.370Z,50.10
2019-05-06T02:04:46.527Z,49.70
2019-05-06T02:09:48.555Z,49.91
2019-05-06T02:14:50.621Z,49.85
2019-05-06T02:19:54.654Z,49.25
2019-05-06T02:25:05.040Z,49.42
2019-05-06T02:30:30.245Z,49.21
2019-05-06T02:35:36.983Z,49.40
2019-05-06T02:40:39.019Z,49.16
2019-05-06T02:45:43.307Z,49.56
2019-05-06T02:51:03.410Z,49.56
2019-05-06T02:56:04.923Z,49.50
2019-05-06T03:01:07.026Z,49.68
2019-05-06T03:06:09.087Z,49.63
2019-05-06T03:11:13.559Z,49.65
2019-05-06T03:16:15.118Z,49.83
2019-05-06T03:21:29.874Z,49.67
2019-05-06T03:26:33.181Z,49.59
2019-05-06T03:31:36.663Z,49.53
2019-05-06T03:36:41.004Z,49.76
2019-05-06T03:41:43.686Z,49.72
2019-05-06T03:47:05.774Z,49.81
2019-05-06T03:52:08.039Z,49.88
2019-05-06T03:57:13.684Z,50.04
2019-05-06T04:02:15.512Z,50.18
2019-05-06T04:07:19.239Z,50.41
2019-05-06T04:12:23.394Z,50.46
2019-05-06T04:17:43.874Z,50.50
2019-05-06T04:22:53.189Z,50.54
2019-05-06T04:27:57.933Z,50.53
2019-05-06T04:33:03.117Z,50.59
2019-05-06T04:38:04.235Z,50.70
2019-05-06T04:43:06.270Z,50.77
2019-05-06T04:48:08.510Z,50.99
2019-05-06T04:53:13.461Z,50.91
2019-05-06T04:58:14.932Z,50.83
2019-05-06T05:03:17.106Z,51.02
2019-05-06T05:08:22.345Z,50.29
2019-05-06T05:13:49.750Z,48.62
2019-05-06T05:18:56.081Z,45.77
2019-05-06T05:23:58.266Z,40.85
2019-05-06T05:29:02.573Z,37.91
2019-05-06T05:34:04.551Z,35.93
2019-05-06T05:39:07.363Z,33.73
2019-05-06T05:44:14.589Z,31.92
2019-05-06T05:49:28.797Z,30.34
2019-05-06T05:54:32.987Z,28.96
2019-05-06T05:59:34.813Z,27.86
2019-05-06T06:04:36.892Z,26.90
2019-05-06T06:09:47.700Z,26.11
2019-05-06T06:15:12.698Z,25.09
2019-05-06T06:20:33.851Z,24.39
2019-05-06T06:25:35.959Z,23.63
2019-05-06T06:30:47.669Z,23.45
2019-05-06T06:35:56.816Z,22.87
2019-05-06T06:40:58.947Z,22.37
2019-05-06T06:46:02.465Z,22.99
2019-05-06T06:51:04.743Z,22.69
2019-05-06T06:56:29.182Z,22.65
2019-05-06T07:01:36.880Z,22.86
2019-05-06T07:06:43.103Z,23.24
2019-05-06T07:11:45.175Z,25.04
2019-05-06T07:16:47.239Z,24.81
2019-05-06T07:21:53.442Z,25.69
2019-05-06T07:27:15.115Z,26.72
2019-05-06T07:32:17.170Z,27.87
2019-05-06T07:37:19.357Z,29.17
2019-05-06T07:42:27.175Z,29.55
2019-05-06T07:47:37.561Z,30.08
2019-05-06T07:52:42.161Z,30.99
2019-05-06T07:57:56.937Z,31.81
2019-05-06T08:02:59.005Z,31.95
2019-05-06T08:08:03.439Z,31.44
2019-05-06T08:13:05.203Z,32.67
2019-05-06T08:18:07.277Z,33.04
2019-05-06T08:23:17.817Z,33.67
2019-05-06T08:28:22.389Z,33.60
2019-05-06T08:33:23.822Z,33.52
2019-05-06T08:38:25.899Z,34.24
2019-05-06T08:43:28.105Z,33.87
2019-05-06T08:48:32.391Z,33.39
2019-05-06T08:53:44.756Z,33.96
2019-05-06T08:58:47.567Z,34.49
2019-05-06T09:04:05.033Z,34.27
2019-05-06T09:08:56.959Z,33.62
2019-05-06T09:13:59.202Z,33.83
2019-05-06T09:19:04.447Z,34.22
2019-05-06T09:24:06.221Z,33.57
2019-05-06T09:29:14.899Z,34.27
2019-05-06T09:34:39.436Z,33.74
2019-05-06T09:39:44.708Z,33.34
2019-05-06T09:44:50.276Z,33.50
2019-05-06T09:49:52.865Z,33.75
2019-05-06T09:55:03.305Z,34.09
2019-05-06T10:00:06.831Z,33.64
2019-05-06T10:05:09.098Z,33.66
2019-05-06T10:10:11.421Z,34.20
2019-05-06T10:15:13.521Z,34.22
2019-05-06T10:20:15.808Z,34.21
2019-05-06T10:25:17.876Z,34.74
2019-05-06T10:30:19.903Z,34.86
2019-05-06T10:35:23.188Z,34.36
2019-05-06T10:40:32.931Z,34.84
2019-05-06T10:45:35.326Z,35.07
2019-05-06T10:50:43.009Z,33.94
2019-05-06T10:55:49.635Z,32.65
2019-05-06T11:01:12.572Z,32.81
2019-05-06T11:06:16.702Z,31.77
2019-05-06T11:11:31.594Z,32.51
2019-05-06T11:16:23.716Z,32.19
2019-05-06T11:21:26.218Z,33.26
2019-05-06T11:26:28.411Z,32.17
2019-05-06T11:31:43.362Z,32.44
2019-05-06T11:36:48.858Z,32.81
2019-05-06T11:42:06.241Z,32.19
2019-05-06T11:46:54.969Z,32.44
2019-05-06T11:51:57.032Z,32.33
2019-05-06T11:57:02.921Z,31.42
2019-05-06T12:02:06.045Z,29.93
2019-05-06T12:07:15.229Z,29.69
2019-05-06T12:12:12.846Z,30.04
2019-05-06T12:17:15.097Z,29.68
2019-05-06T12:22:17.120Z,29.62
2019-05-06T12:27:37.429Z,30.08
2019-05-06T12:32:45.898Z,29.68
2019-05-06T12:37:53.033Z,30.56
2019-05-06T12:43:14.626Z,30.82
2019-05-06T12:48:26.354Z,30.60
2019-05-06T12:53:28.440Z,30.56
2019-05-06T12:58:30.479Z,30.93
2019-05-06T13:03:34.844Z,30.53
2019-05-06T13:08:54.075Z,30.89
2019-05-06T13:13:55.570Z,30.83
2019-05-06T13:18:47.721Z,31.08
2019-05-06T13:23:52.557Z,31.05
2019-05-06T13:28:58.867Z,31.06
2019-05-06T13:34:05.628Z,31.50
2019-05-06T13:39:14.264Z,30.94
2019-05-06T13:44:13.512Z,31.44
2019-05-06T13:49:34.351Z,31.64
2019-05-06T13:54:36.825Z,31.91
2019-05-06T13:59:39.105Z,32.04
2019-05-06T14:04:44.279Z,32.05
2019-05-06T14:09:48.897Z,31.43
2019-05-06T14:14:53.783Z,31.86
2019-05-06T14:19:55.881Z,32.19
2019-05-06T14:25:33.127Z,32.01
2019-05-06T14:30:53.775Z,32.09
2019-05-06T14:35:56.043Z,31.99
2019-05-06T14:41:13.118Z,31.94
2019-05-06T14:46:14.866Z,32.14
2019-05-06T14:51:17.254Z,32.66
2019-05-06T14:56:25.606Z,31.60
2019-05-06T15:01:27.685Z,31.58
2019-05-06T15:06:29.930Z,32.43
2019-05-06T15:11:32.538Z,32.30
2019-05-06T15:16:35.071Z,31.96
2019-05-06T15:21:38.783Z,32.72
2019-05-06T15:26:52.033Z,32.15
2019-05-06T15:32:05.741Z,32.60
2019-05-06T15:37:16.943Z,32.73
2019-05-06T15:42:19.007Z,33.01
2019-05-06T15:47:22.724Z,33.25
2019-05-06T15:52:25.056Z,33.56
2019-05-06T15:57:27.210Z,33.87
2019-05-06T16:02:29.299Z,34.12
2019-05-06T16:07:34.999Z,33.66
2019-05-06T16:12:36.536Z,33.53
2019-05-06T16:17:38.673Z,33.93
2019-05-06T16:22:44.190Z,33.65
2019-05-06T16:27:51.039Z,33.88
2019-05-06T16:32:52.662Z,34.81
2019-05-06T16:37:55.022Z,34.81
2019-05-06T16:42:57.113Z,35.10
2019-05-06T16:47:59.156Z,35.18
2019-05-06T16:53:02.728Z,34.61
2019-05-06T16:58:10.119Z,34.47
2019-05-06T17:03:17.936Z,34.75
2019-05-06T17:08:23.349Z,34.25
2019-05-06T17:13:25.189Z,34.34
2019-05-06T17:18:28.507Z,35.07
2019-05-06T17:23:32.422Z,35.68
2019-05-06T17:28:52.560Z,35.92
2019-05-06T17:33:56.136Z,35.97
2019-05-06T17:38:58.232Z,35.67
2019-05-06T17:44:02.293Z,36.23
2019-05-06T17:49:17.372Z,36.16
2019-05-06T17:54:19.635Z,36.34
2019-05-06T17:59:21.677Z,36.48
2019-05-06T18:04:23.988Z,36.86
2019-05-06T18:09:26.056Z,36.25
2019-05-06T18:14:28.255Z,36.72
2019-05-06T18:19:30.377Z,37.12
2019-05-06T18:24:33.227Z,37.32
2019-05-06T18:29:36.011Z,37.49
2019-05-06T18:34:38.085Z,37.85
2019-05-06T18:39:42.333Z,38.42
2019-05-06T18:44:44.234Z,38.77
2019-05-06T18:49:46.264Z,38.53
2019-05-06T18:54:48.304Z,38.94
2019-05-06T18:59:50.395Z,38.94
2019-05-06T19:05:02.412Z,39.29
2019-05-06T19:10:09.248Z,39.46
2019-05-06T19:15:12.662Z,39.60
2019-05-06T19:20:15.234Z,39.89
2019-05-06T19:25:17.327Z,40.15
2019-05-06T19:30:19.692Z,40.26
2019-05-06T19:35:21.735Z,40.96
2019-05-06T19:40:23.900Z,40.95
2019-05-06T19:45:26.023Z,41.09
2019-05-06T19:50:28.113Z,41.24
2019-05-06T19:55:30.144Z,41.32
2019-05-06T20:00:32.629Z,41.54
2019-05-06T20:05:54.722Z,41.53
2019-05-06T20:11:09.752Z,41.64
2019-05-06T20:16:12.441Z,41.77
2019-05-06T20:21:14.671Z,42.14
2019-05-06T20:26:16.750Z,42.10
2019-05-06T20:31:22.488Z,42.16
2019-05-06T20:36:24.566Z,42.41
2019-05-06T20:41:26.567Z,42.25
2019-05-06T20:46:28.690Z,42.16
2019-05-06T20:51:32.848Z,42.65
2019-05-06T20:56:34.803Z,42.49
2019-05-06T21:01:36.974Z,43.06
2019-05-06T21:06:39.083Z,43.02
2019-05-06T21:11:42.149Z,43.41
2019-05-06T21:16:44.487Z,43.48
2019-05-06T21:21:46.543Z,44.02
2019-05-06T21:26:48.625Z,43.94
2019-05-06T21:31:52.966Z,44.35
2019-05-06T21:36:54.752Z,44.64
2019-05-06T21:41:56.862Z,44.92
2019-05-06T21:46:58.975Z,45.07
2019-05-06T21:52:02.128Z,45.43
2019-05-06T21:57:04.536Z,45.91
2019-05-06T22:02:07.949Z,46.41
2019-05-06T22:07:12.022Z,46.70
2019-05-06T22:12:13.984Z,47.09
2019-05-06T22:17:16.057Z,47.17
2019-05-06T22:22:20.535Z,47.57
2019-05-06T22:27:25.196Z,47.76
2019-05-06T22:32:27.256Z,47.69
2019-05-06T22:37:29.360Z,47.81
2019-05-06T22:42:32.288Z,48.17
2019-05-06T22:47:34.574Z,48.29
2019-05-06T22:52:36.624Z,48.32
2019-05-06T22:57:38.810Z,48.79
2019-05-06T23:02:52.728Z,48.79
2019-05-06T23:07:54.960Z,48.70
2019-05-06T23:12:57.006Z,49.04
2019-05-06T23:17:59.090Z,49.03
2019-05-06T23:23:02.419Z,49.02
2019-05-06T23:28:05.177Z,49.11
2019-05-06T23:33:07.376Z,49.05
2019-05-06T23:38:46.057Z,49.19
2019-05-06T23:44:24.660Z,49.27
2019-05-06T23:50:03.756Z,49.45
2019-05-06T23:55:44.157Z,49.66
